Time;durP1;ratioP1;P1;durP2;ratioP2;P2;SDS_P1;SDS_P2;PMS_P1;PMS_P2;Temp;Humidity;BMP_temperature;BMP_pressure;BME280_temperature;BME280_humidity;BME280_pressure;Samples;Min_cycle;Max_cycle;Signal;HPM_P1;HPM_P2
2023/05/10 00:02:02;;;;;;;2.78;1.50;;;;;;;11.21;100.00;98610.91;5056589;28;20064;-62
2023/05/10 00:04:29;;;;;;;1.88;1.40;;;;;;;11.17;100.00;98612.47;5055407;28;20413;-61
2023/05/10 00:06:56;;;;;;;1.30;1.20;;;;;;;11.18;100.00;98611.41;5060561;28;20398;-61
2023/05/10 00:09:22;;;;;;;2.33;1.33;;;;;;;11.19;100.00;98611.16;5058025;28;20443;-61
2023/05/10 00:11:49;;;;;;;2.65;1.83;;;;;;;11.16;100.00;98611.69;5058590;28;20041;-61
2023/05/10 00:14:16;;;;;;;4.68;1.60;;;;;;;11.18;100.00;98611.41;5056804;28;20037;-61
2023/05/10 00:16:43;;;;;;;2.72;1.42;;;;;;;11.19;100.00;98611.16;5063549;28;20040;-61
2023/05/10 00:19:12;;;;;;;1.92;1.30;;;;;;;11.14;100.00;98618.38;5062563;28;20040;-61
2023/05/10 00:21:39;;;;;;;5.63;1.65;;;;;;;11.14;100.00;98613.00;5060133;28;20554;-62
2023/05/10 00:24:06;;;;;;;1.92;1.40;;;;;;;11.15;100.00;98609.25;5063925;28;20046;-61
2023/05/10 00:26:33;;;;;;;4.65;1.50;;;;;;;11.13;100.00;98611.38;5060385;28;20047;-62
2023/05/10 00:29:01;;;;;;;1.58;1.48;;;;;;;11.15;100.00;98609.25;5057597;28;20091;-62
2023/05/10 00:31:28;;;;;;;3.28;1.55;;;;;;;11.13;100.00;98606.84;5061471;28;20139;-62
2023/05/10 00:33:55;;;;;;;1.40;1.30;;;;;;;11.15;100.00;98603.88;5056488;28;20122;-61
2023/05/10 00:36:24;;;;;;;3.63;1.30;;;;;;;11.16;100.00;98608.19;5061090;28;20472;-62
2023/05/10 00:38:50;;;;;;;3.38;1.50;;;;;;;11.17;100.00;98599.88;5057796;28;20040;-62
2023/05/10 00:41:18;;;;;;;2.22;1.33;;;;;;;11.14;100.00;98607.63;5059077;28;20132;-61
2023/05/10 00:43:46;;;;;;;1.98;1.40;;;;;;;11.17;100.00;98604.44;5058910;28;20517;-61
2023/05/10 00:46:13;;;;;;;2.15;1.50;;;;;;;11.20;100.00;98609.25;5057214;28;20546;-61
2023/05/10 00:48:40;;;;;;;1.88;1.55;;;;;;;11.15;100.00;98606.56;5063498;28;20066;-62
2023/05/10 00:51:07;;;;;;;6.93;2.05;;;;;;;11.17;100.00;98610.59;5061829;28;20040;-60
2023/05/10 00:53:35;;;;;;;1.50;1.40;;;;;;;11.18;100.00;98614.91;5055742;28;20127;-63
2023/05/10 00:56:03;;;;;;;1.67;1.45;;;;;;;11.19;100.00;98618.41;5066640;28;20032;-63
2023/05/10 00:58:30;;;;;;;2.47;1.50;;;;;;;11.21;100.00;98611.69;5094523;28;20036;-63
2023/05/10 01:00:57;;;;;;;1.40;1.30;;;;;;;11.17;100.00;98613.28;5060333;28;20043;-63
2023/05/10 01:03:25;;;;;;;1.88;1.40;;;;;;;11.14;100.00;98607.63;5059130;28;20064;-63
2023/05/10 01:05:52;;;;;;;3.70;1.48;;;;;;;11.16;100.00;98608.19;5053982;28;20602;-63
2023/05/10 01:08:19;;;;;;;2.60;1.30;;;;;;;11.11;100.00;98608.16;5062517;28;20061;-63
2023/05/10 01:10:48;;;;;;;3.40;1.42;;;;;;;11.12;100.00;98615.13;5065718;28;20052;-63
2023/05/10 01:13:18;;;;;;;2.22;1.40;;;;;;;11.05;100.00;98612.69;5057172;28;20777;-63
2023/05/10 01:15:45;;;;;;;2.13;1.55;;;;;;;10.99;100.00;98609.16;5058986;28;20068;-63
2023/05/10 01:18:12;;;;;;;2.10;1.60;;;;;;;10.96;100.00;98601.66;5054518;28;20045;-63
2023/05/10 01:20:41;;;;;;;3.10;1.60;;;;;;;10.97;100.00;98603.25;5060887;28;20052;-63
2023/05/10 01:23:32;;;;;;;4.03;1.80;;;;;;;10.95;100.00;98602.69;5056003;28;20048;-62
2023/05/10 01:26:24;;;;;;;1.60;1.50;;;;;;;10.94;100.00;98606.47;5053526;28;20060;-63
2023/05/10 01:29:12;;;;;;;2.65;1.50;;;;;;;10.93;100.00;98602.19;5061879;28;20068;-61
2023/05/10 01:32:08;;;;;;;2.92;1.80;;;;;;;10.96;100.00;98601.66;5054876;28;20135;-63
2023/05/10 01:34:36;;;;;;;5.57;1.77;;;;;;;11.10;100.00;98606.53;5047894;28;20040;-63
2023/05/10 01:37:07;;;;;;;3.40;1.73;;;;;;;11.06;100.00;98606.25;5058280;28;20825;-63
2023/05/10 01:39:36;;;;;;;;;;;;;;;11.05;100.00;98601.16;5054263;28;20094;-60
2023/05/10 01:42:04;;;;;;;2.08;1.60;;;;;;;10.98;100.00;98596.84;5059210;28;19931;-63
2023/05/10 01:44:35;;;;;;;5.68;1.73;;;;;;;11.01;100.00;98590.94;5055919;28;20044;-62
2023/05/10 01:47:06;;;;;;;5.00;1.90;;;;;;;10.97;100.00;98600.56;5055902;28;20143;-63
2023/05/10 01:49:35;;;;;;;;;;;;;;;10.95;100.00;98601.91;5058455;28;20495;-61
2023/05/10 01:52:07;;;;;;;3.10;1.77;;;;;;;10.94;100.00;98608.34;5058996;28;19921;-62
2023/05/10 01:54:34;;;;;;;5.43;2.00;;;;;;;10.95;100.00;98605.38;5057582;28;20044;-62
2023/05/10 01:57:04;;;;;;;6.10;1.70;;;;;;;10.95;100.00;98609.94;5055902;28;20047;-62
2023/05/10 01:59:32;;;;;;;2.60;1.75;;;;;;;10.92;100.00;98605.91;5056742;28;20071;-62
2023/05/10 02:02:00;;;;;;;3.22;1.75;;;;;;;10.91;100.00;98614.22;5049486;28;20053;-62
2023/05/10 02:04:27;;;;;;;2.13;1.73;;;;;;;10.99;100.00;98617.22;5061563;28;20587;-62
2023/05/10 02:06:55;;;;;;;2.22;1.70;;;;;;;11.08;100.00;98617.50;5074280;28;20037;-62
2023/05/10 02:09:22;;;;;;;3.88;1.70;;;;;;;11.09;100.00;98619.16;5054174;28;20056;-62
2023/05/10 02:11:51;;;;;;;2.67;1.90;;;;;;;11.07;100.00;98615.13;5053605;28;20052;-62
2023/05/10 02:14:18;;;;;;;3.85;2.17;;;;;;;11.10;100.00;98619.94;5055606;28;20037;-62
2023/05/10 02:16:45;;;;;;;2.95;1.75;;;;;;;11.09;100.00;98621.81;5060621;28;20049;-62
2023/05/10 02:19:12;;;;;;;2.80;1.90;;;;;;;11.10;100.00;98622.63;5058926;28;20044;-62
2023/05/10 02:21:39;;;;;;;3.17;2.00;;;;;;;11.16;100.00;98626.97;5051322;28;20048;-62
2023/05/10 02:24:08;;;;;;;4.53;2.28;;;;;;;11.13;100.00;98616.75;5060212;28;20051;-62
2023/05/10 02:26:35;;;;;;;3.05;1.98;;;;;;;11.12;100.00;98626.66;5065895;28;20090;-62
2023/05/10 02:29:04;;;;;;;4.28;2.10;;;;;;;11.13;100.00;98622.94;5073221;28;20402;-62
2023/05/10 02:31:31;;;;;;;3.00;2.17;;;;;;;11.17;100.00;98628.56;5056234;28;20057;-62
2023/05/10 02:33:58;;;;;;;3.30;2.30;;;;;;;11.08;100.00;98625.56;5059264;28;20070;-62
2023/05/10 02:36:25;;;;;;;4.30;2.17;;;;;;;11.11;100.00;98635.00;5064377;28;20441;-62
2023/05/10 02:38:52;;;;;;;2.83;2.00;;;;;;;11.15;100.00;98622.66;5061970;28;20036;-62
2023/05/10 02:41:21;;;;;;;6.72;2.53;;;;;;;11.09;100.00;98627.19;5058828;28;20052;-62
2023/05/10 02:43:49;;;;;;;7.57;2.40;;;;;;;11.11;100.00;98624.25;5057590;28;20160;-62
2023/05/10 02:46:16;;;;;;;4.85;2.45;;;;;;;11.07;100.00;98623.16;5058151;28;20396;-61
2023/05/10 02:48:43;;;;;;;6.82;2.50;;;;;;;11.16;100.00;98624.28;5059243;28;20045;-62
2023/05/10 02:51:11;;;;;;;8.68;2.50;;;;;;;11.10;100.00;98619.94;5055080;28;20041;-62
2023/05/10 02:53:38;;;;;;;5.18;2.33;;;;;;;11.08;100.00;98622.06;5056266;28;20043;-62
2023/05/10 02:56:07;;;;;;;4.40;2.50;;;;;;;11.12;100.00;98628.53;5058473;28;20555;-62
2023/05/10 02:58:36;;;;;;;3.75;2.30;;;;;;;11.13;100.00;98628.28;5055560;28;20048;-62
2023/05/10 03:01:03;;;;;;;2.78;2.10;;;;;;;11.15;100.00;98630.69;5098129;28;20036;-62
2023/05/10 03:03:30;;;;;;;5.80;2.30;;;;;;;11.14;100.00;98629.09;5067847;28;20044;-62
2023/05/10 03:05:58;;;;;;;3.15;2.10;;;;;;;11.18;100.00;98632.84;5064826;28;20037;-62
2023/05/10 03:08:25;;;;;;;3.03;2.20;;;;;;;11.18;100.00;98630.16;5064542;28;20495;-62
2023/05/10 03:10:56;;;;;;;3.90;2.60;;;;;;;11.21;100.00;98629.69;5060930;28;20080;-62
2023/05/10 03:13:29;;;;;;;4.15;3.03;;;;;;;11.13;100.00;98630.16;5058449;28;20033;-62
2023/05/10 03:16:00;;;;;;;6.90;2.97;;;;;;;11.10;100.00;98634.16;5055804;28;20136;-62
2023/05/10 03:18:30;;;;;;;6.40;3.03;;;;;;;11.11;100.00;98637.66;5065030;28;20114;-61
2023/05/10 03:20:59;;;;;;;5.93;3.15;;;;;;;11.09;100.00;98642.47;5042246;28;20135;-61
2023/05/10 03:23:28;;;;;;;5.03;3.75;;;;;;;11.13;100.00;98644.38;5063116;28;20047;-61
2023/05/10 03:25:55;;;;;;;8.98;3.30;;;;;;;11.15;100.00;98636.06;5059204;28;20079;-63
2023/05/10 03:28:22;;;;;;;8.80;3.50;;;;;;;11.10;100.00;98641.41;5060377;28;20131;-62
2023/05/10 03:30:49;;;;;;;6.57;3.80;;;;;;;11.12;100.00;98636.59;5059736;28;20041;-63
2023/05/10 03:33:17;;;;;;;5.35;3.20;;;;;;;11.12;100.00;98639.28;5058291;28;20048;-63
2023/05/10 03:35:46;;;;;;;;;;;;;;;11.10;100.00;98647.56;5057534;28;20048;-61
2023/05/10 03:38:14;;;;;;;4.90;3.17;;;;;;;11.17;100.00;98641.97;5066023;28;19924;-61
2023/05/10 03:40:41;;;;;;;5.00;3.58;;;;;;;11.23;100.00;98649.81;5053541;28;20499;-61
2023/05/10 03:43:08;;;;;;;3.90;2.47;;;;;;;11.26;100.00;98653.84;5059272;28;20459;-63
2023/05/10 03:45:36;;;;;;;4.22;2.75;;;;;;;11.32;100.00;98646.63;5053633;28;20509;-63
2023/05/10 03:48:03;;;;;;;6.25;2.90;;;;;;;11.36;100.00;98653.88;5058680;28;20455;-63
2023/05/10 03:50:32;;;;;;;4.05;2.88;;;;;;;11.42;100.00;98649.34;5057783;28;20370;-63
2023/05/10 03:52:59;;;;;;;3.17;2.17;;;;;;;11.40;100.00;98660.31;5054585;28;20510;-63
2023/05/10 03:55:29;;;;;;;7.63;2.70;;;;;;;11.40;100.00;98660.31;5065965;28;20094;-63
2023/05/10 03:57:56;;;;;;;4.68;2.85;;;;;;;11.39;100.00;98658.72;5056006;28;20183;-63
2023/05/10 04:00:24;;;;;;;3.67;2.38;;;;;;;11.39;100.00;98658.72;5067830;28;20503;-63
2023/05/10 04:02:54;;;;;;;;;;;;;;;11.45;100.00;98663.03;5061728;28;20060;-61
2023/05/10 04:05:21;;;;;;;6.75;2.50;;;;;;;11.45;100.00;98660.34;5057240;28;19920;-63
2023/05/10 04:07:50;;;;;;;7.35;2.90;;;;;;;11.39;100.00;98664.09;5050442;28;20049;-63
2023/05/10 04:10:18;;;;;;;5.00;3.50;;;;;;;11.39;100.00;98653.34;5063879;28;20406;-63
2023/05/10 04:12:45;;;;;;;6.15;3.70;;;;;;;11.34;100.00;98666.75;5057063;28;20793;-62
2023/05/10 04:15:12;;;;;;;7.68;3.95;;;;;;;11.29;100.00;98668.59;5060081;28;20049;-62
2023/05/10 04:17:39;;;;;;;4.60;3.50;;;;;;;11.27;100.00;98671.53;5059138;28;20066;-62
2023/05/10 04:20:07;;;;;;;5.53;3.45;;;;;;;11.31;100.00;98672.66;5058912;28;20116;-62
2023/05/10 04:22:34;;;;;;;8.25;3.50;;;;;;;11.34;100.00;98665.94;5064349;28;20044;-62
2023/05/10 04:25:06;;;;;;;6.00;3.65;;;;;;;11.35;100.00;98668.34;5059457;28;20456;-62
2023/05/10 04:27:33;;;;;;;4.82;3.33;;;;;;;11.38;100.00;98667.84;5054626;28;20084;-62
2023/05/10 04:30:00;;;;;;;5.13;3.08;;;;;;;11.47;100.00;98670.03;5056015;28;20065;-62
2023/05/10 04:32:27;;;;;;;5.57;3.10;;;;;;;11.46;100.00;98666.53;5062860;28;20040;-62
2023/05/10 04:34:54;;;;;;;7.30;3.53;;;;;;;11.62;100.00;98670.09;5061342;28;20570;-62
2023/05/10 04:37:22;;;;;;;6.72;3.17;;;;;;;11.60;100.00;98669.53;5060180;28;20033;-62
2023/05/10 04:39:52;;;;;;;4.28;3.00;;;;;;;11.54;100.00;98675.97;5063302;28;20037;-62
2023/05/10 04:42:21;;;;;;;7.45;2.88;;;;;;;11.61;100.00;98673.84;5062665;28;20051;-62
2023/05/10 04:44:48;;;;;;;6.13;2.70;;;;;;;11.59;100.00;98679.47;5056187;28;20060;-62
2023/05/10 04:47:16;;;;;;;6.00;3.47;;;;;;;11.60;100.00;98680.28;5061015;28;20275;-62
2023/05/10 04:49:43;;;;;;;7.28;4.25;;;;;;;11.53;100.00;98682.38;5059842;28;20520;-62
2023/05/10 04:52:10;;;;;;;12.05;3.60;;;;;;;11.55;100.00;98682.94;5058424;28;20053;-62
2023/05/10 04:54:37;;;;;;;7.30;4.20;;;;;;;11.50;100.00;98680.22;5063618;28;20067;-62
2023/05/10 04:57:04;;;;;;;5.90;3.72;;;;;;;11.55;100.00;98686.41;5063564;28;20106;-62
2023/05/10 04:59:32;;;;;;;8.45;4.18;;;;;;;11.61;100.00;98693.44;5059070;28;20064;-62
2023/05/10 05:01:59;;;;;;;6.90;3.83;;;;;;;11.60;100.00;98691.00;5062684;28;20501;-62
2023/05/10 05:04:26;;;;;;;7.65;3.60;;;;;;;11.66;100.00;98692.66;5059519;28;20040;-62
2023/05/10 05:06:53;;;;;;;6.60;3.67;;;;;;;11.71;100.00;98687.31;5054865;28;20094;-62
2023/05/10 05:09:20;;;;;;;6.85;3.80;;;;;;;11.78;100.00;98687.88;5059838;28;20045;-62
2023/05/10 05:11:47;;;;;;;7.10;3.28;;;;;;;11.86;100.00;98695.44;5061609;28;20040;-62
2023/05/10 05:14:14;;;;;;;6.55;3.40;;;;;;;11.96;100.00;98694.66;5057082;28;20146;-62
2023/05/10 05:16:42;;;;;;;5.95;3.67;;;;;;;12.05;100.00;98700.31;5057476;28;20560;-62
2023/05/10 05:19:09;;;;;;;5.60;3.25;;;;;;;12.09;100.00;98702.22;5058116;28;20049;-62
2023/05/10 05:21:36;;;;;;;6.85;3.58;;;;;;;12.01;100.00;98704.63;5057533;28;20048;-62
2023/05/10 05:24:04;;;;;;;5.05;3.47;;;;;;;12.00;100.00;98711.06;5056660;28;20044;-62
2023/05/10 05:26:31;;;;;;;5.00;3.20;;;;;;;11.94;100.00;98712.13;5053434;28;20066;-62
2023/05/10 05:28:58;;;;;;;8.02;3.85;;;;;;;12.03;100.00;98716.72;5054487;28;20126;-62
2023/05/10 05:31:25;;;;;;;5.45;3.60;;;;;;;12.19;100.00;98704.13;5057414;28;20498;-62
2023/05/10 05:33:53;;;;;;;8.38;3.65;;;;;;;12.34;100.00;98707.91;5056651;28;20615;-63
2023/05/10 05:36:20;;;;;;;7.30;3.70;;;;;;;12.40;100.00;98712.22;5059507;28;20118;-62
2023/05/10 05:38:47;;;;;;;7.22;3.75;;;;;;;12.50;100.00;98718.44;5060011;28;20040;-63
2023/05/10 05:41:14;;;;;;;7.57;3.90;;;;;;;12.66;100.00;98718.44;5058094;28;20040;-62
2023/05/10 05:43:41;;;;;;;6.28;3.58;;;;;;;12.84;100.00;98725.16;5055654;28;20049;-62
2023/05/10 05:46:08;;;;;;;4.95;3.22;;;;;;;12.95;100.00;98721.38;5059906;28;20047;-62
2023/05/10 05:48:35;;;;;;;12.32;4.53;;;;;;;12.54;100.00;98726.75;5055153;28;20129;-62
2023/05/10 05:51:04;;;;;;;6.47;3.13;;;;;;;12.91;100.00;98728.38;5064446;28;20052;-62
2023/05/10 05:53:31;;;;;;;6.60;3.17;;;;;;;12.73;100.00;98730.53;5054720;28;20127;-62
2023/05/10 05:55:59;;;;;;;6.53;3.05;;;;;;;12.70;100.00;98733.78;5057343;28;20133;-62
2023/05/10 05:58:26;;;;;;;4.90;3.40;;;;;;;12.55;100.00;98733.72;5060846;28;20140;-63
2023/05/10 06:00:53;;;;;;;8.55;3.75;;;;;;;12.31;100.00;98738.81;5064210;28;20135;-62
2023/05/10 06:03:20;;;;;;;5.90;3.88;;;;;;;12.36;100.00;98732.66;5057996;28;20052;-62
2023/05/10 06:05:47;;;;;;;5.53;3.60;;;;;;;12.24;100.00;98727.50;5059990;28;20060;-62
2023/05/10 06:08:15;;;;;;;6.07;3.60;;;;;;;12.08;100.00;98734.69;5053169;28;20053;-62
2023/05/10 06:10:42;;;;;;;7.57;3.90;;;;;;;12.26;100.00;98747.66;5058725;28;20124;-62
2023/05/10 06:13:09;;;;;;;8.07;3.90;;;;;;;12.17;100.00;98754.63;5060466;28;20062;-62
2023/05/10 06:15:36;;;;;;;8.98;4.07;;;;;;;12.23;100.00;98756.25;5054038;28;20052;-62
2023/05/10 06:18:05;;;;;;;7.47;3.25;;;;;;;12.24;100.00;98763.25;5064308;28;20038;-62
2023/05/10 06:20:32;;;;;;;9.77;3.45;;;;;;;12.15;100.00;98758.63;5053765;28;20146;-62
2023/05/10 06:22:59;;;;;;;7.93;3.90;;;;;;;12.11;100.00;98755.69;5056404;28;20191;-62
2023/05/10 06:25:28;;;;;;;9.55;4.50;;;;;;;12.14;100.00;98757.03;5059718;28;20151;-62
2023/05/10 06:27:57;;;;;;;7.18;4.25;;;;;;;12.23;100.00;98761.63;5052043;28;20482;-62
2023/05/10 06:30:27;;;;;;;8.95;4.05;;;;;;;12.18;100.00;98760.78;5059557;28;20158;-62
2023/05/10 06:32:55;;;;;;;;;;;;;;;12.23;100.00;98761.63;5064017;28;20501;-62
2023/05/10 06:35:22;;;;;;;6.55;4.07;;;;;;;12.32;100.00;98766.50;5063042;28;20384;-62
2023/05/10 06:37:49;;;;;;;9.43;4.22;;;;;;;12.41;100.00;98759.53;5062218;28;20414;-62
2023/05/10 06:40:17;;;;;;;8.75;3.90;;;;;;;12.56;100.00;98761.44;5059821;28;20103;-62
2023/05/10 06:42:46;;;;;;;7.25;3.90;;;;;;;12.55;100.00;98766.00;5056306;28;20099;-62
2023/05/10 06:45:16;;;;;;;8.02;3.65;;;;;;;12.43;100.00;98768.13;5059922;28;20052;-62
2023/05/10 06:47:42;;;;;;;11.20;3.70;;;;;;;12.69;100.00;98767.09;5061788;28;20072;-62
2023/05/10 06:50:11;;;;;;;6.47;3.50;;;;;;;12.59;100.00;98772.47;5065041;28;20090;-63
2023/05/10 06:52:38;;;;;;;8.68;4.07;;;;;;;12.66;100.00;98778.38;5062718;28;20402;-63
2023/05/10 06:55:05;;;;;;;5.68;3.33;;;;;;;12.72;100.00;98771.13;5065876;28;20124;-62
2023/05/10 06:57:32;;;;;;;9.43;3.92;;;;;;;12.78;100.00;98780.81;5061560;28;20491;-62
2023/05/10 07:00:01;;;;;;;10.63;3.70;;;;;;;12.79;100.00;98784.31;5058969;28;20502;-62
2023/05/10 07:02:28;;;;;;;7.10;3.63;;;;;;;12.79;100.00;98782.44;5063476;28;20296;-62
2023/05/10 07:04:55;;;;;;;9.73;3.33;;;;;;;12.97;100.00;98788.34;5062622;28;20146;-62
2023/05/10 07:07:24;;;;;;;10.52;3.95;;;;;;;12.95;100.00;98789.44;5062043;28;20045;-63
2023/05/10 07:09:51;;;;;;;7.70;3.85;;;;;;;12.83;100.00;98788.06;5059333;28;20410;-62
2023/05/10 07:12:18;;;;;;;6.10;3.50;;;;;;;13.07;100.00;98791.03;5065539;28;20123;-63
2023/05/10 07:14:46;;;;;;;11.57;3.58;;;;;;;13.14;100.00;98795.06;5059653;28;20045;-62
2023/05/10 07:17:14;;;;;;;6.07;3.20;;;;;;;12.95;100.00;98802.91;5059744;28;20056;-62
2023/05/10 07:19:41;;;;;;;8.32;3.30;;;;;;;12.92;100.00;98792.66;5066031;28;20135;-62
2023/05/10 07:22:08;;;;;;;12.50;3.80;;;;;;;13.14;100.00;98805.84;5058695;28;20047;-62
2023/05/10 07:24:36;;;;;;;5.65;3.15;;;;;;;13.08;100.00;98806.94;5065638;28;20118;-63
2023/05/10 07:27:04;;;;;;;5.72;3.03;;;;;;;13.12;100.00;98812.56;5065158;28;20040;-63
2023/05/10 07:29:31;;;;;;;6.00;3.30;;;;;;;12.99;100.00;98813.13;5058117;28;20555;-62
2023/05/10 07:31:57;;;;;;;7.25;3.35;;;;;;;13.13;100.00;98808.81;5067729;28;20051;-63
2023/05/10 07:34:26;;;;;;;8.93;3.65;;;;;;;12.89;100.00;98813.91;5064571;28;20102;-62
2023/05/10 07:36:53;;;;;;;12.35;3.53;;;;;;;13.02;100.00;98817.94;5066490;28;20132;-63
2023/05/10 07:39:21;;;;;;;7.20;3.38;;;;;;;13.11;100.00;98811.78;5056548;28;20556;-62
2023/05/10 07:41:48;;;;;;;7.07;3.00;;;;;;;13.17;100.00;98815.25;5060740;28;20502;-63
2023/05/10 07:44:18;;;;;;;11.10;3.30;;;;;;;13.17;100.00;98826.81;5057186;28;20044;-62
2023/05/10 07:46:45;;;;;;;12.27;3.55;;;;;;;13.27;100.00;98819.88;5068145;28;20056;-63
2023/05/10 07:49:12;;;;;;;6.22;3.25;;;;;;;13.47;100.00;98822.53;5058761;28;20045;-62
2023/05/10 07:51:40;;;;;;;8.68;3.55;;;;;;;13.20;100.00;98828.16;5055692;28;20041;-63
2023/05/10 07:54:07;;;;;;;9.98;4.78;;;;;;;13.32;100.00;98819.88;5062001;28;20127;-63
2023/05/10 07:56:36;;;;;;;12.18;3.33;;;;;;;13.69;100.00;98821.44;5060405;28;20037;-62
2023/05/10 07:59:03;;;;;;;10.32;4.10;;;;;;;13.61;100.00;98820.09;5058931;28;20079;-63
2023/05/10 08:01:31;;;;;;;9.02;3.67;;;;;;;13.34;100.00;98823.09;5064380;28;20072;-63
2023/05/10 08:03:58;;;;;;;7.30;3.58;;;;;;;13.28;100.00;98824.16;5060102;28;20045;-62
2023/05/10 08:06:26;;;;;;;8.20;3.58;;;;;;;13.29;100.00;98817.72;5066739;28;20095;-63
2023/05/10 08:08:56;;;;;;;6.30;3.50;;;;;;;13.44;100.00;98824.97;5061998;28;20139;-63
2023/05/10 08:11:23;;;;;;;10.70;3.75;;;;;;;13.28;100.00;98818.78;5058341;28;20045;-62
2023/05/10 08:13:50;;;;;;;13.07;4.00;;;;;;;13.57;100.00;98827.91;5058728;28;20475;-63
2023/05/10 08:16:17;;;;;;;9.00;2.92;;;;;;;13.86;100.00;98826.53;5062388;28;20109;-63
2023/05/10 08:18:45;;;;;;;9.75;3.40;;;;;;;14.22;100.00;98829.88;5065467;28;20139;-63
2023/05/10 08:21:12;;;;;;;6.90;2.88;;;;;;;14.36;100.00;98820.13;5057752;28;20045;-63
2023/05/10 08:23:39;;;;;;;8.25;2.38;;;;;;;14.56;100.00;98824.63;5060542;28;20123;-63
2023/05/10 08:26:07;;;;;;;6.68;2.67;;;;;;;14.53;100.00;98835.16;5059363;28;20099;-62
2023/05/10 08:28:35;;;;;;;10.25;3.08;;;;;;;14.72;100.00;98833.44;5063367;28;20380;-62
2023/05/10 08:31:02;;;;;;;6.70;2.40;;;;;;;14.49;100.00;98829.50;5058651;28;20043;-63
2023/05/10 08:33:29;;;;;;;5.47;2.00;;;;;;;14.67;100.00;98836.97;5063745;28;20047;-63
2023/05/10 08:35:58;;;;;;;4.30;1.90;;;;;;;14.53;100.00;98835.16;5057831;28;20124;-63
2023/05/10 08:38:26;;;;;;;5.03;1.70;;;;;;;14.55;98.55;98839.22;5060502;28;20403;-62
2023/05/10 08:40:56;;;;;;;4.60;1.63;;;;;;;14.59;97.11;98839.47;5056023;28;20049;-63
2023/05/10 08:43:24;;;;;;;;;;;;;;;14.53;95.31;98841.38;5063794;28;20807;-63
2023/05/10 08:45:51;;;;;;;5.25;1.40;;;;;;;14.51;95.24;98843.50;5057673;28;20296;-63
2023/05/10 08:48:18;;;;;;;2.28;1.58;;;;;;;14.65;96.67;98846.41;5053688;28;20037;-62
2023/05/10 08:50:45;;;;;;;1.90;1.45;;;;;;;14.75;97.54;98854.47;5067621;28;20044;-62
2023/05/10 08:53:12;;;;;;;5.22;1.58;;;;;;;14.70;96.16;98857.19;5058345;28;20044;-62
2023/05/10 08:55:41;;;;;;;3.45;1.40;;;;;;;14.73;94.73;98856.66;5062516;28;20056;-62
2023/05/10 08:58:09;;;;;;;4.47;1.50;;;;;;;14.61;95.97;98861.56;5056318;28;20060;-62
2023/05/10 09:00:37;;;;;;;6.28;1.20;;;;;;;14.51;93.55;98869.69;5065179;28;20052;-62
2023/05/10 09:03:05;;;;;;;3.53;1.20;;;;;;;14.43;93.45;98869.16;5059387;28;20068;-62
2023/05/10 09:05:32;;;;;;;0.90;0.90;;;;;;;14.40;94.03;98872.41;5058016;28;20124;-62
2023/05/10 09:08:00;;;;;;;1.63;1.20;;;;;;;14.24;94.93;98870.84;5059688;28;20041;-63
2023/05/10 09:10:27;;;;;;;1.40;1.02;;;;;;;14.21;96.58;98882.19;5061182;28;20044;-62
2023/05/10 09:12:54;;;;;;;3.33;1.00;;;;;;;14.23;98.09;98880.03;5062202;28;20398;-62
2023/05/10 09:15:21;;;;;;;5.38;1.40;;;;;;;14.33;97.63;98882.69;5057155;28;20045;-62
2023/05/10 09:17:50;;;;;;;1.45;1.00;;;;;;;14.18;96.08;98882.75;5058015;28;20130;-62
2023/05/10 09:20:18;;;;;;;3.10;1.20;;;;;;;14.48;93.33;98889.09;5058824;28;20036;-62
2023/05/10 09:22:45;;;;;;;4.88;1.08;;;;;;;14.70;92.35;98889.53;5055940;28;20041;-61
2023/05/10 09:25:13;;;;;;;2.70;1.30;;;;;;;14.84;90.87;98895.16;5057821;28;20040;-63
2023/05/10 09:27:40;;;;;;;0.98;0.82;;;;;;;14.92;91.31;98891.88;5066562;28;20090;-61
2023/05/10 09:30:08;;;;;;;0.98;0.90;;;;;;;15.06;91.03;98892.06;5060491;28;20036;-61
2023/05/10 09:32:39;;;;;;;1.65;1.00;;;;;;;14.98;90.89;98892.66;5054133;28;20047;-61
2023/05/10 09:35:12;;;;;;;3.50;1.10;;;;;;;15.49;88.37;98889.56;5054829;28;20128;-63
2023/05/10 09:37:41;;;;;;;3.13;0.95;;;;;;;15.91;85.55;98898.97;5061370;28;20052;-63
2023/05/10 09:40:09;;;;;;;2.38;1.00;;;;;;;15.79;84.14;98893.94;5058295;28;20047;-63
2023/05/10 09:42:35;;;;;;;1.00;0.90;;;;;;;16.82;80.55;98899.00;5061974;28;20131;-63
2023/05/10 09:45:04;;;;;;;2.50;1.05;;;;;;;16.96;76.72;98901.81;5056058;28;20128;-62
2023/05/10 09:47:33;;;;;;;1.00;0.88;;;;;;;17.66;75.49;98903.69;5056029;28;20048;-62
2023/05/10 09:50:03;;;;;;;1.67;0.90;;;;;;;18.86;71.56;98905.50;5058134;28;20053;-61
2023/05/10 09:52:46;;;;;;;4.32;1.00;;;;;;;18.62;70.18;98894.06;5061942;28;20598;-61
2023/05/10 09:55:13;;;;;;;2.35;1.02;;;;;;;18.77;70.25;98901.09;5058278;28;20102;-61
2023/05/10 09:57:40;;;;;;;1.30;0.93;;;;;;;17.87;72.39;98896.03;5055584;28;20713;-62
2023/05/10 10:00:09;;;;;;;1.17;0.70;;;;;;;17.85;73.55;98903.69;5065898;28;20052;-63
2023/05/10 10:02:42;;;;;;;1.30;0.93;;;;;;;17.27;74.19;98904.06;5065409;28;20052;-61
2023/05/10 10:05:10;;;;;;;1.88;1.13;;;;;;;17.25;75.79;98907.88;5061314;28;20041;-61
2023/05/10 10:07:38;;;;;;;3.05;1.08;;;;;;;16.78;76.38;98915.03;5065673;28;20057;-61
2023/05/10 10:10:11;;;;;;;2.05;1.00;;;;;;;17.17;77.52;98907.72;5058921;28;20052;-61
2023/05/10 10:12:38;;;;;;;5.07;1.20;;;;;;;17.30;75.83;98906.16;5059818;28;20498;-61
2023/05/10 10:15:06;;;;;;;1.80;0.93;;;;;;;17.08;74.12;98904.09;5060695;28;20072;-61
2023/05/10 10:17:33;;;;;;;3.15;0.93;;;;;;;17.48;73.04;98899.94;5067076;28;20044;-61
2023/05/10 10:20:00;;;;;;;1.23;1.00;;;;;;;17.71;72.83;98892.78;5070096;28;20059;-63
2023/05/10 10:22:27;;;;;;;1.08;0.98;;;;;;;18.46;70.09;98891.66;5066703;28;20422;-63
2023/05/10 10:24:56;;;;;;;1.38;0.90;;;;;;;19.54;65.54;98903.66;5057905;28;20520;-61
2023/05/10 10:27:24;;;;;;;1.38;0.98;;;;;;;21.36;60.88;98893.72;5059496;28;20101;-61
2023/05/10 10:29:59;;;;;;;0.63;0.63;;;;;;;21.14;56.70;98900.94;5060243;28;20051;-63
2023/05/10 10:32:28;;;;;;;0.70;0.70;;;;;;;21.40;59.09;98895.50;5062461;28;20043;-61
2023/05/10 10:34:56;;;;;;;1.60;0.60;;;;;;;20.36;61.56;98892.59;5065249;28;20449;-61
2023/05/10 10:37:23;;;;;;;2.38;0.90;;;;;;;19.17;65.29;98885.84;5064543;28;20040;-63
2023/05/10 10:39:50;;;;;;;5.32;1.20;;;;;;;19.01;64.68;98896.22;5068825;28;20136;-63
2023/05/10 10:42:49;;;;;;;2.88;1.10;;;;;;;18.68;66.23;98888.22;5067839;28;20124;-61
2023/05/10 10:45:18;;;;;;;2.72;0.88;;;;;;;18.42;68.68;98890.69;5061431;28;20426;-63
2023/05/10 10:47:45;;;;;;;1.55;1.15;;;;;;;18.67;67.14;98891.22;5066797;28;20044;-62
2023/05/10 10:50:13;;;;;;;1.48;1.05;;;;;;;19.04;65.01;98886.66;5066416;28;20143;-62
2023/05/10 10:52:40;;;;;;;2.75;0.90;;;;;;;20.00;63.09;98879.97;5063805;28;20388;-62
2023/05/10 10:55:08;;;;;;;1.23;0.85;;;;;;;19.93;58.70;98876.91;5060816;28;20488;-62
2023/05/10 10:57:44;;;;;;;0.88;0.85;;;;;;;19.90;58.75;98882.97;5068214;28;20048;-62
2023/05/10 11:00:30;;;;;;;2.70;1.00;;;;;;;19.68;59.97;98883.81;5064692;28;20041;-62
2023/05/10 11:02:58;;;;;;;5.55;1.15;;;;;;;20.48;58.51;98885.44;5061698;28;20037;-62
2023/05/10 11:05:46;;;;;;;2.42;1.00;;;;;;;19.01;58.44;98890.78;5061975;28;20133;-62
2023/05/10 11:08:17;;;;;;;1.10;1.00;;;;;;;19.41;61.36;98888.25;5060798;28;20134;-62
2023/05/10 11:11:03;;;;;;;1.52;0.90;;;;;;;19.05;62.30;98891.00;5064597;28;20134;-61
2023/05/10 11:13:30;;;;;;;1.27;1.13;;;;;;;18.90;59.95;98890.22;5066335;28;20167;-62
2023/05/10 11:15:59;;;;;;;2.15;1.00;;;;;;;18.69;62.18;98887.09;5062645;28;20045;-62
2023/05/10 11:18:26;;;;;;;3.15;1.10;;;;;;;18.22;62.83;98889.19;5067464;28;20506;-61
2023/05/10 11:20:54;;;;;;;1.60;0.90;;;;;;;18.71;63.09;98890.31;5064398;28;20053;-63
2023/05/10 11:23:21;;;;;;;2.45;0.85;;;;;;;19.00;62.86;98889.19;5065116;28;20041;-63
2023/05/10 11:25:48;;;;;;;3.75;1.00;;;;;;;19.03;62.19;98883.16;5060925;28;20323;-62
2023/05/10 11:28:17;;;;;;;1.02;0.90;;;;;;;18.20;65.10;98894.09;5060963;28;20518;-62
2023/05/10 11:30:44;;;;;;;2.15;1.00;;;;;;;18.44;66.23;98890.34;5061573;28;20128;-62
2023/05/10 11:33:16;;;;;;;5.32;0.95;;;;;;;17.55;68.68;98892.25;5065296;28;20143;-61
2023/05/10 11:35:43;;;;;;;1.67;1.00;;;;;;;17.75;71.17;98899.22;5061228;28;20044;-63